Time;durP1;ratioP1;P1;durP2;ratioP2;P2;SDS_P1;SDS_P2;PMS_P1;PMS_P2;Temp;Humidity;BMP_temperature;BMP_pressure;BME280_temperature;BME280_humidity;BME280_pressure;Samples;Min_cycle;Max_cycle;Signal;HPM_P1;HPM_P2
2022/02/27 00:01:20;;;;;;;9.20;4.15;;;4.30;99.90;;;;;;5034397;28;20578;-80
2022/02/27 00:03:46;;;;;;;12.82;3.53;;;4.40;99.90;;;;;;5034242;28;20172;-80
2022/02/27 00:06:12;;;;;;;8.77;3.92;;;4.30;99.90;;;;;;5034121;28;20203;-80
2022/02/27 00:08:38;;;;;;;14.02;4.00;;;4.50;99.90;;;;;;5034248;28;20168;-80
2022/02/27 00:11:03;;;;;;;12.90;4.57;;;4.40;99.90;;;;;;5033908;28;20202;-81
2022/02/27 00:13:29;;;;;;;9.98;4.82;;;4.50;99.90;;;;;;5032760;28;20167;-80
2022/02/27 00:15:54;;;;;;;8.50;4.38;;;4.50;99.90;;;;;;5033948;28;20203;-80
2022/02/27 00:18:20;;;;;;;12.25;3.92;;;4.50;99.90;;;;;;5034511;28;20187;-81
2022/02/27 00:20:47;;;;;;;8.60;3.53;;;4.50;99.90;;;;;;5032629;28;20191;-79
2022/02/27 00:23:13;;;;;;;18.75;4.57;;;4.50;99.90;;;;;;5032662;28;20164;-80
2022/02/27 00:25:39;;;;;;;9.98;3.63;;;4.50;99.90;;;;;;5032837;28;20195;-79
2022/02/27 00:28:05;;;;;;;11.38;3.60;;;4.50;99.90;;;;;;5033557;28;20560;-83
2022/02/27 00:30:30;;;;;;;9.23;3.63;;;4.50;99.90;;;;;;5032231;28;20560;-79
2022/02/27 00:32:56;;;;;;;7.50;3.45;;;4.60;99.90;;;;;;5033815;28;20171;-79
2022/02/27 00:35:22;;;;;;;4.20;3.08;;;4.50;99.90;;;;;;5033538;28;20647;-79
2022/02/27 00:37:47;;;;;;;12.48;3.85;;;4.40;99.90;;;;;;5033524;28;20575;-79
2022/02/27 00:40:13;;;;;;;10.10;3.22;;;4.60;99.90;;;;;;5032239;28;20171;-79
2022/02/27 00:42:39;;;;;;;10.38;4.00;;;4.60;99.90;;;;;;5033429;28;20255;-79
2022/02/27 00:45:05;;;;;;;10.43;3.33;;;4.60;99.90;;;;;;5033402;28;20191;-79
2022/02/27 00:47:31;;;;;;;8.73;3.47;;;4.60;99.90;;;;;;5033399;28;20261;-79
2022/02/27 00:49:57;;;;;;;10.60;3.53;;;4.50;99.90;;;;;;5033433;28;20160;-80
2022/02/27 00:52:23;;;;;;;10.18;3.80;;;4.60;99.90;;;;;;5033462;28;20164;-79
2022/02/27 00:54:49;;;;;;;15.07;3.90;;;4.70;99.90;;;;;;5032330;28;20214;-79
2022/02/27 00:57:15;;;;;;;7.43;3.42;;;4.70;99.90;;;;;;5033387;28;20164;-79
2022/02/27 00:59:44;;;;;;;9.25;3.60;;;4.80;99.90;;;;;;5033195;28;20247;-79
2022/02/27 01:02:13;;;;;;;10.50;4.38;;;4.80;99.90;;;;;;5032813;28;20172;-79
2022/02/27 01:04:39;;;;;;;11.73;4.20;;;4.70;99.90;;;;;;5033073;28;20234;-79
2022/02/27 01:07:05;;;;;;;9.23;3.05;;;4.60;99.90;;;;;;5032845;28;20215;-79
2022/02/27 01:09:31;;;;;;;8.27;3.28;;;4.70;99.90;;;;;;5033283;28;20167;-81
2022/02/27 01:11:56;;;;;;;9.13;3.10;;;4.60;99.90;;;;;;5032153;28;20184;-79
2022/02/27 01:14:22;;;;;;;8.82;3.75;;;4.70;99.90;;;;;;5033042;28;20284;-80
2022/02/27 01:16:47;;;;;;;6.35;3.20;;;4.80;99.90;;;;;;5033177;28;20167;-80
2022/02/27 01:19:13;;;;;;;10.38;3.40;;;4.80;99.90;;;;;;5031468;28;20174;-79
2022/02/27 01:21:39;;;;;;;6.53;3.13;;;4.60;99.90;;;;;;5032561;28;20642;-80
2022/02/27 01:24:05;;;;;;;11.77;2.88;;;4.60;99.90;;;;;;5033028;28;20175;-80
2022/02/27 01:26:31;;;;;;;6.85;3.20;;;4.70;99.90;;;;;;5032552;28;20207;-81
2022/02/27 01:28:56;;;;;;;10.57;3.08;;;4.40;99.90;;;;;;5032691;28;20174;-80
2022/02/27 01:31:22;;;;;;;5.18;3.50;;;4.20;99.90;;;;;;5032729;28;20164;-80
2022/02/27 01:33:47;;;;;;;12.02;3.22;;;4.30;99.90;;;;;;5031692;28;20198;-81
2022/02/27 01:36:13;;;;;;;6.43;2.83;;;4.20;99.90;;;;;;5031561;28;20171;-79
2022/02/27 01:38:39;;;;;;;7.75;3.53;;;4.60;99.90;;;;;;5031552;28;20179;-79
2022/02/27 01:41:06;;;;;;;12.52;4.05;;;4.40;99.90;;;;;;5032529;28;20203;-79
2022/02/27 01:43:33;;;;;;;10.02;3.55;;;4.40;99.90;;;;;;5033292;28;20494;-79
2022/02/27 01:45:58;;;;;;;7.20;3.42;;;4.40;99.90;;;;;;5032648;28;20231;-80
2022/02/27 01:48:24;;;;;;;7.32;2.90;;;4.50;99.90;;;;;;5031309;28;20207;-79
2022/02/27 01:50:55;;;;;;;8.07;4.00;;;4.30;99.90;;;;;;5032885;28;20197;-80
2022/02/27 01:53:21;;;;;;;6.20;3.53;;;4.40;99.90;;;;;;5032628;28;20693;-79
2022/02/27 01:55:47;;;;;;;8.85;4.05;;;4.20;99.90;;;;;;5031492;28;20282;-79
2022/02/27 01:58:13;;;;;;;9.77;3.40;;;4.30;99.90;;;;;;5031274;28;20211;-79
2022/02/27 02:00:38;;;;;;;6.55;3.20;;;4.30;99.90;;;;;;5031749;28;20263;-82
2022/02/27 02:03:04;;;;;;;11.18;3.90;;;4.20;99.90;;;;;;5031069;28;20202;-79
2022/02/27 02:05:30;;;;;;;7.63;3.72;;;4.10;99.90;;;;;;5032938;28;20227;-80
2022/02/27 02:07:55;;;;;;;11.27;4.38;;;4.00;99.90;;;;;;5030849;28;20215;-81
2022/02/27 02:10:21;;;;;;;11.15;4.35;;;4.00;99.90;;;;;;5032297;28;20180;-79
2022/02/27 02:12:46;;;;;;;8.40;3.55;;;3.90;99.90;;;;;;5032328;28;20205;-80
2022/02/27 02:15:12;;;;;;;8.20;4.25;;;3.90;99.90;;;;;;5032618;28;20191;-79
2022/02/27 02:17:38;;;;;;;10.23;4.82;;;3.90;99.90;;;;;;5032292;28;20633;-80
2022/02/27 02:20:06;;;;;;;10.13;4.32;;;3.70;99.90;;;;;;5031124;28;20175;-79
2022/02/27 02:22:31;;;;;;;14.85;4.45;;;3.60;99.90;;;;;;5032690;28;20240;-80
2022/02/27 02:24:57;;;;;;;12.05;4.32;;;3.60;99.90;;;;;;5031678;28;20187;-80
2022/02/27 02:27:23;;;;;;;17.00;6.05;;;3.50;99.90;;;;;;5032407;28;20706;-80
2022/02/27 02:29:48;;;;;;;11.05;3.83;;;3.40;99.90;;;;;;5031981;28;20206;-80
2022/02/27 02:32:14;;;;;;;5.75;4.07;;;3.40;99.90;;;;;;5032357;28;20182;-80
2022/02/27 02:34:40;;;;;;;13.15;4.10;;;3.50;99.90;;;;;;5032408;28;20263;-80
2022/02/27 02:37:08;;;;;;;6.72;4.25;;;3.50;99.90;;;;;;5032277;28;20168;-80
2022/02/27 02:39:34;;;;;;;7.68;4.28;;;3.30;99.90;;;;;;5015120;28;20178;-80
2022/02/27 02:42:00;;;;;;;11.20;4.57;;;3.30;99.90;;;;;;5032370;28;20602;-80
2022/02/27 02:44:26;;;;;;;6.50;4.32;;;3.30;99.90;;;;;;5030952;28;20199;-80
2022/02/27 02:46:52;;;;;;;8.63;4.13;;;3.30;99.90;;;;;;5030491;28;20230;-81
2022/02/27 02:49:17;;;;;;;12.38;3.58;;;3.20;99.90;;;;;;5030686;28;20624;-81
2022/02/27 02:51:43;;;;;;;11.05;3.90;;;3.30;99.90;;;;;;5030648;28;20172;-81
2022/02/27 02:54:09;;;;;;;18.95;4.50;;;3.10;99.90;;;;;;5030941;28;20641;-80
2022/02/27 02:56:35;;;;;;;16.83;4.72;;;3.00;99.90;;;;;;5031058;28;20639;-81
2022/02/27 02:59:02;;;;;;;9.40;4.13;;;3.00;99.90;;;;;;5032398;28;20199;-81
2022/02/27 03:01:29;;;;;;;7.70;3.33;;;2.90;99.90;;;;;;5033139;28;20160;-80
2022/02/27 03:03:56;;;;;;;15.23;4.00;;;2.90;99.90;;;;;;5035956;28;20175;-81
2022/02/27 03:06:22;;;;;;;14.65;3.95;;;3.00;99.90;;;;;;5034705;28;20200;-81
2022/02/27 03:08:49;;;;;;;12.13;3.55;;;3.20;99.90;;;;;;5035311;28;20160;-84
2022/02/27 03:11:16;;;;;;;12.15;4.40;;;3.10;99.90;;;;;;5035225;28;20162;-80
2022/02/27 03:13:42;;;;;;;8.23;3.17;;;3.00;99.90;;;;;;5034213;28;20171;-79
2022/02/27 03:16:08;;;;;;;9.75;3.22;;;2.90;99.90;;;;;;5033752;28;20750;-80
2022/02/27 03:18:34;;;;;;;5.20;3.42;;;2.90;99.90;;;;;;5034981;28;20183;-79
2022/02/27 03:21:00;;;;;;;6.10;3.00;;;2.90;99.90;;;;;;5033572;28;20168;-80
2022/02/27 03:23:26;;;;;;;10.88;4.18;;;3.10;99.90;;;;;;5034873;28;20167;-81
2022/02/27 03:25:52;;;;;;;8.45;3.42;;;3.20;99.90;;;;;;5034568;28;20200;-82
2022/02/27 03:28:18;;;;;;;9.10;3.20;;;3.40;99.90;;;;;;5035012;28;20640;-80
2022/02/27 03:30:43;;;;;;;10.95;3.50;;;3.40;99.90;;;;;;5035195;28;20554;-81
2022/02/27 03:33:09;;;;;;;6.00;3.25;;;3.30;99.90;;;;;;5035643;28;20175;-81
2022/02/27 03:35:35;;;;;;;6.63;2.95;;;3.20;99.90;;;;;;5035512;28;20195;-80
2022/02/27 03:38:02;;;;;;;7.45;3.50;;;3.30;99.90;;;;;;5037469;28;20159;-80
2022/02/27 03:40:27;;;;;;;6.63;3.05;;;3.30;99.90;;;;;;5036997;28;20271;-82
2022/02/27 03:42:53;;;;;;;10.57;2.95;;;3.20;99.90;;;;;;5037749;28;20203;-80
2022/02/27 03:45:19;;;;;;;6.63;3.08;;;3.10;99.90;;;;;;5038362;28;20184;-83
2022/02/27 03:47:44;;;;;;;6.05;2.58;;;3.10;99.90;;;;;;5038811;28;20253;-80
2022/02/27 03:50:12;;;;;;;5.88;3.05;;;3.00;99.90;;;;;;5038145;28;20167;-79
2022/02/27 03:52:37;;;;;;;10.65;3.08;;;3.00;99.90;;;;;;5037901;28;20633;-79
2022/02/27 03:55:05;;;;;;;11.95;2.97;;;2.90;99.90;;;;;;5038377;28;20278;-82
2022/02/27 03:57:31;;;;;;;15.48;3.17;;;2.70;99.90;;;;;;5038102;28;20172;-84
2022/02/27 03:59:57;;;;;;;14.07;2.90;;;2.60;99.90;;;;;;5038104;28;20171;-80
2022/02/27 04:02:22;;;;;;;7.65;3.10;;;2.70;99.90;;;;;;5055363;28;20168;-78
2022/02/27 04:04:48;;;;;;;11.07;3.28;;;2.80;99.90;;;;;;5056488;28;20256;-79
2022/02/27 04:07:14;;;;;;;10.40;2.90;;;2.80;99.90;;;;;;5055075;28;20215;-78
2022/02/27 04:09:40;;;;;;;7.45;3.05;;;2.90;99.90;;;;;;5056026;28;20140;-79
2022/02/27 04:12:06;;;;;;;9.15;3.88;;;2.70;99.90;;;;;;5056586;28;20164;-78
2022/02/27 04:14:32;;;;;;;13.60;3.55;;;2.70;99.90;;;;;;5054670;28;20188;-79
2022/02/27 04:16:58;;;;;;;8.35;3.03;;;2.80;99.90;;;;;;5055372;28;20182;-79
2022/02/27 04:19:23;;;;;;;7.65;2.67;;;2.70;99.90;;;;;;5055438;28;20183;-78
2022/02/27 04:21:49;;;;;;;6.55;2.90;;;2.60;99.90;;;;;;5056268;28;20243;-78
2022/02/27 04:24:15;;;;;;;8.20;2.95;;;2.60;99.90;;;;;;5054496;28;20164;-80
2022/02/27 04:26:40;;;;;;;10.80;3.03;;;2.50;99.90;;;;;;5036967;28;20756;-80
2022/02/27 04:29:06;;;;;;;7.50;2.33;;;2.40;99.90;;;;;;5035038;28;20172;-80
2022/02/27 04:31:32;;;;;;;5.43;2.78;;;2.40;99.90;;;;;;5033274;28;20176;-83
2022/02/27 04:33:57;;;;;;;14.98;3.38;;;2.50;99.90;;;;;;5034640;28;20527;-80
2022/02/27 04:36:24;;;;;;;6.78;2.83;;;2.50;99.90;;;;;;5032915;28;20272;-80
2022/02/27 04:38:52;;;;;;;7.38;2.63;;;2.50;99.90;;;;;;5033117;28;20178;-80
2022/02/27 04:41:18;;;;;;;7.68;3.08;;;2.40;99.90;;;;;;5033006;28;20173;-79
2022/02/27 04:43:48;;;;;;;11.80;3.47;;;2.50;99.90;;;;;;5032709;28;20636;-79
2022/02/27 04:46:14;;;;;;;7.30;2.53;;;2.50;99.90;;;;;;5032441;28;20250;-79
2022/02/27 04:48:40;;;;;;;11.23;3.03;;;2.70;99.90;;;;;;5032836;28;20639;-80
2022/02/27 04:51:06;;;;;;;5.53;2.72;;;2.60;99.90;;;;;;5034065;28;20625;-80
2022/02/27 04:53:33;;;;;;;7.30;3.08;;;2.60;99.90;;;;;;5032387;28;20541;-81
2022/02/27 04:55:58;;;;;;;6.50;2.30;;;2.60;99.90;;;;;;5032585;28;20532;-80
2022/02/27 04:58:24;;;;;;;9.70;3.00;;;2.30;99.90;;;;;;5033607;28;20229;-83
2022/02/27 05:00:50;;;;;;;11.07;3.47;;;2.40;99.90;;;;;;5032118;28;20168;-80
2022/02/27 05:03:15;;;;;;;5.65;2.53;;;2.40;99.90;;;;;;5033326;28;20164;-80
2022/02/27 05:05:41;;;;;;;5.18;2.47;;;2.50;99.90;;;;;;5033355;28;20194;-79
2022/02/27 05:08:06;;;;;;;6.43;3.08;;;2.60;99.90;;;;;;5033537;28;20286;-80
2022/02/27 05:10:32;;;;;;;13.02;3.15;;;2.60;99.90;;;;;;5033535;28;20164;-80
2022/02/27 05:12:58;;;;;;;2.95;2.22;;;2.60;99.90;;;;;;5031998;28;20620;-82
2022/02/27 05:15:25;;;;;;;6.28;2.60;;;2.60;99.90;;;;;;5031733;28;20196;-79
2022/02/27 05:17:51;;;;;;;5.72;2.65;;;2.60;99.90;;;;;;5033203;28;20188;-84
2022/02/27 05:20:17;;;;;;;5.03;2.22;;;2.60;99.90;;;;;;5032204;28;20176;-84
2022/02/27 05:22:44;;;;;;;11.50;2.70;;;2.60;99.90;;;;;;5032424;28;20174;-80
2022/02/27 05:25:11;;;;;;;11.32;2.65;;;2.50;99.90;;;;;;5032783;28;20194;-80
2022/02/27 05:27:37;;;;;;;10.77;3.25;;;2.60;99.90;;;;;;5033020;28;20207;-79
2022/02/27 05:30:04;;;;;;;4.53;2.08;;;2.80;99.90;;;;;;5032981;28;20171;-82
2022/02/27 05:32:30;;;;;;;7.78;3.05;;;2.80;99.90;;;;;;5032960;28;20256;-83
2022/02/27 05:34:55;;;;;;;5.30;2.50;;;2.90;99.90;;;;;;5033141;28;20208;-83
2022/02/27 05:37:21;;;;;;;6.55;2.40;;;2.70;99.90;;;;;;5033125;28;20735;-80
2022/02/27 05:39:47;;;;;;;4.82;2.00;;;2.70;99.90;;;;;;5031752;28;20255;-82
2022/02/27 05:42:12;;;;;;;4.50;3.28;;;3.00;99.90;;;;;;5033084;28;20175;-83
2022/02/27 05:44:39;;;;;;;6.72;2.30;;;3.00;99.90;;;;;;5032130;28;20248;-84
2022/02/27 05:47:05;;;;;;;4.63;2.00;;;3.10;99.90;;;;;;5031698;28;20199;-79
2022/02/27 05:49:30;;;;;;;2.42;2.10;;;3.10;99.90;;;;;;5032875;28;20221;-84
2022/02/27 05:51:56;;;;;;;4.50;1.92;;;3.10;99.90;;;;;;5032934;28;20164;-79
2022/02/27 05:54:22;;;;;;;6.13;2.47;;;3.30;99.90;;;;;;5031709;28;20179;-79
2022/02/27 05:56:47;;;;;;;5.50;2.65;;;3.20;99.90;;;;;;5032867;28;20178;-79
2022/02/27 05:59:13;;;;;;;6.18;2.28;;;2.90;99.90;;;;;;5033164;28;20169;-80
2022/02/27 06:01:38;;;;;;;8.23;1.80;;;2.70;99.90;;;;;;5031690;28;20204;-79
2022/02/27 06:04:04;;;;;;;5.05;2.30;;;2.60;99.90;;;;;;5032927;28;20163;-83
2022/02/27 06:06:29;;;;;;;2.45;1.80;;;2.50;99.90;;;;;;5032527;28;20553;-83
2022/02/27 06:08:55;;;;;;;3.28;1.77;;;2.50;99.90;;;;;;5032826;28;20575;-80
2022/02/27 06:11:20;;;;;;;2.75;2.45;;;2.50;99.90;;;;;;5032598;28;20179;-82
2022/02/27 06:13:46;;;;;;;3.03;2.05;;;2.40;99.90;;;;;;5032845;28;20200;-81
2022/02/27 06:16:12;;;;;;;5.50;2.42;;;2.30;99.90;;;;;;5032729;28;20191;-80
2022/02/27 06:18:37;;;;;;;6.22;2.50;;;2.30;99.90;;;;;;5032046;28;20218;-80
2022/02/27 06:21:04;;;;;;;9.65;2.55;;;2.20;99.90;;;;;;5031646;28;20180;-80
2022/02/27 06:23:30;;;;;;;8.68;2.60;;;2.30;99.90;;;;;;5032710;28;20164;-83
2022/02/27 06:25:56;;;;;;;8.50;2.58;;;2.40;99.90;;;;;;5032698;28;20188;-80
2022/02/27 06:28:21;;;;;;;3.38;2.05;;;2.50;99.90;;;;;;5031473;28;20645;-80
2022/02/27 06:30:47;;;;;;;9.23;3.20;;;2.50;99.90;;;;;;5031549;28;20616;-79
2022/02/27 06:33:12;;;;;;;4.95;2.25;;;2.40;99.90;;;;;;5031621;28;20670;-79
2022/02/27 06:35:38;;;;;;;6.18;1.50;;;2.50;99.90;;;;;;5033458;28;20202;-83
2022/02/27 06:38:04;;;;;;;7.88;2.75;;;2.60;99.90;;;;;;5035225;28;20191;-78
2022/02/27 06:40:29;;;;;;;8.23;2.28;;;2.40;99.90;;;;;;5036443;28;20544;-80
2022/02/27 06:42:55;;;;;;;6.05;2.60;;;2.30;99.90;;;;;;5035181;28;20249;-78
2022/02/27 06:45:21;;;;;;;5.00;2.53;;;2.40;99.90;;;;;;5036397;28;20196;-78
2022/02/27 06:47:46;;;;;;;3.10;1.73;;;2.30;99.90;;;;;;5036332;28;20211;-83
2022/02/27 06:50:13;;;;;;;2.50;1.50;;;2.30;99.90;;;;;;5036482;28;20180;-78
2022/02/27 06:52:39;;;;;;;6.03;2.00;;;2.40;99.90;;;;;;5036656;28;20171;-83
2022/02/27 06:55:05;;;;;;;4.25;2.03;;;2.40;99.90;;;;;;5035975;28;20203;-83
2022/02/27 06:57:31;;;;;;;6.97;2.80;;;2.50;99.90;;;;;;5036237;28;20175;-79
2022/02/27 06:59:56;;;;;;;11.43;2.08;;;2.50;99.90;;;;;;5036180;28;20168;-83
2022/02/27 07:02:22;;;;;;;4.03;2.50;;;2.60;99.90;;;;;;5036035;28;20179;-78
2022/02/27 07:04:48;;;;;;;4.65;1.80;;;2.50;99.90;;;;;;5035863;28;20184;-83
2022/02/27 07:07:14;;;;;;;11.70;2.30;;;2.50;99.90;;;;;;5035934;28;20211;-81
2022/02/27 07:09:40;;;;;;;3.78;1.75;;;2.50;99.90;;;;;;5035779;28;20217;-83
2022/02/27 07:12:06;;;;;;;5.05;1.70;;;2.50;99.90;;;;;;5035930;28;20172;-81
2022/02/27 07:14:31;;;;;;;6.65;2.20;;;2.60;99.90;;;;;;5034243;28;20191;-79
2022/02/27 07:16:58;;;;;;;11.75;1.73;;;2.80;99.90;;;;;;5034053;28;20632;-80
2022/02/27 07:19:24;;;;;;;6.53;2.33;;;2.80;99.90;;;;;;5034442;28;20190;-82
2022/02/27 07:21:49;;;;;;;10.68;2.03;;;2.90;99.90;;;;;;5035604;28;20172;-82
2022/02/27 07:24:15;;;;;;;9.65;2.30;;;2.70;99.90;;;;;;5041120;28;20191;-78
2022/02/27 07:26:41;;;;;;;6.57;1.80;;;2.60;99.90;;;;;;5040147;28;20224;-83
2022/02/27 07:29:08;;;;;;;7.60;2.25;;;2.70;99.90;;;;;;5042432;28;20644;-82
2022/02/27 07:31:35;;;;;;;4.03;2.27;;;2.80;99.90;;;;;;5038147;28;20176;-79
2022/02/27 07:34:02;;;;;;;2.15;1.60;;;2.70;99.90;;;;;;5038964;28;20184;-83
2022/02/27 07:36:28;;;;;;;9.63;2.25;;;2.80;99.90;;;;;;5037321;28;20250;-78
2022/02/27 07:38:55;;;;;;;5.13;2.58;;;2.80;99.90;;;;;;5038310;28;20214;-80
2022/02/27 07:41:20;;;;;;;3.08;1.92;;;2.80;99.90;;;;;;5041842;28;20168;-80
2022/02/27 07:43:46;;;;;;;5.95;2.20;;;2.90;99.90;;;;;;5037529;28;20187;-84
2022/02/27 07:46:12;;;;;;;6.22;2.38;;;3.00;99.90;;;;;;5039529;28;20220;-85
2022/02/27 07:48:38;;;;;;;4.80;1.95;;;3.00;99.90;;;;;;5034407;28;20258;-81
2022/02/27 07:51:03;;;;;;;7.35;2.17;;;3.10;99.90;;;;;;5035448;28;20164;-83
2022/02/27 07:53:29;;;;;;;6.35;2.60;;;3.00;99.90;;;;;;5034931;28;20617;-87
2022/02/27 07:55:54;;;;;;;6.90;1.67;;;3.10;99.90;;;;;;5034998;28;20246;-85
2022/02/27 07:58:20;;;;;;;3.30;1.80;;;3.20;99.90;;;;;;5035049;28;20176;-83
2022/02/27 08:00:45;;;;;;;5.30;2.13;;;3.20;99.90;;;;;;5034467;28;20172;-83
2022/02/27 08:03:11;;;;;;;4.30;2.08;;;3.20;99.90;;;;;;5033583;28;20179;-80
2022/02/27 08:05:38;;;;;;;6.80;2.10;;;3.20;99.90;;;;;;5034689;28;20191;-83
2022/02/27 08:08:04;;;;;;;3.90;2.17;;;3.30;99.90;;;;;;5034932;28;20200;-87
2022/02/27 08:10:30;;;;;;;6.18;1.95;;;3.30;99.90;;;;;;5033831;28;20531;-84
2022/02/27 08:12:55;;;;;;;7.60;2.28;;;3.40;99.90;;;;;;5034099;28;20632;-85
2022/02/27 08:15:21;;;;;;;3.42;1.92;;;3.40;99.90;;;;;;5033160;28;20184;-80
2022/02/27 08:17:47;;;;;;;3.40;1.90;;;3.50;99.90;;;;;;5034768;28;20222;-80
2022/02/27 08:20:13;;;;;;;2.88;1.70;;;3.70;99.90;;;;;;5034226;28;20217;-79
2022/02/27 08:22:39;;;;;;;6.97;2.80;;;3.90;99.90;;;;;;5036723;28;20175;-80
2022/02/27 08:25:06;;;;;;;6.28;2.00;;;4.00;99.90;;;;;;5035086;28;20652;-83
2022/02/27 08:27:33;;;;;;;8.02;2.08;;;3.90;99.90;;;;;;5034785;28;20207;-80
2022/02/27 08:29:58;;;;;;;6.05;2.25;;;3.80;99.90;;;;;;5034199;28;20175;-85
2022/02/27 08:32:24;;;;;;;5.93;2.70;;;4.00;99.90;;;;;;5033127;28;20174;-83
2022/02/27 08:34:50;;;;;;;6.88;2.55;;;4.10;99.90;;;;;;5033023;28;20188;-80
2022/02/27 08:37:15;;;;;;;3.25;2.03;;;4.30;99.90;;;;;;5033739;28;20255;-85
2022/02/27 08:39:41;;;;;;;2.33;1.95;;;4.50;99.90;;;;;;5034324;28;20247;-82
2022/02/27 08:42:07;;;;;;;6.72;2.03;;;4.80;99.90;;;;;;5034414;28;20168;-83
2022/02/27 08:44:35;;;;;;;5.60;2.40;;;5.00;99.90;;;;;;5033920;28;20188;-83
2022/02/27 08:47:05;;;;;;;3.10;1.80;;;5.10;99.90;;;;;;5033154;28;20204;-85
2022/02/27 08:49:33;;;;;;;7.45;2.25;;;5.30;99.90;;;;;;5034168;28;20235;-80
2022/02/27 08:51:59;;;;;;;2.38;1.70;;;5.10;99.90;;;;;;5034130;28;20164;-84
2022/02/27 08:54:25;;;;;;;5.45;2.10;;;5.10;99.90;;;;;;5033612;28;20210;-80
2022/02/27 08:56:51;;;;;;;4.88;2.05;;;5.10;99.90;;;;;;5035186;28;20258;-80
2022/02/27 08:59:17;;;;;;;2.85;1.73;;;5.20;99.90;;;;;;5032755;28;20168;-79
2022/02/27 09:01:43;;;;;;;5.18;1.95;;;5.30;99.90;;;;;;5032561;28;20172;-78
2022/02/27 09:04:08;;;;;;;2.60;1.65;;;5.10;99.90;;;;;;5032684;28;20191;-84
2022/02/27 09:06:34;;;;;;;4.68;1.65;;;5.30;99.90;;;;;;5033829;28;20203;-80
2022/02/27 09:09:00;;;;;;;4.32;1.70;;;5.20;99.90;;;;;;5033626;28;20172;-84
2022/02/27 09:11:25;;;;;;;4.55;1.42;;;5.40;99.90;;;;;;5029619;28;20237;-80
2022/02/27 09:13:51;;;;;;;4.25;1.50;;;5.50;99.90;;;;;;5036181;28;20180;-83
2022/02/27 09:16:17;;;;;;;6.38;1.85;;;5.50;99.90;;;;;;5034663;28;20167;-84
2022/02/27 09:18:42;;;;;;;4.88;2.10;;;5.50;99.90;;;;;;5032574;28;20249;-81
2022/02/27 09:21:08;;;;;;;4.53;1.48;;;5.50;99.90;;;;;;5031890;28;20652;-81
2022/02/27 09:23:35;;;;;;;2.70;1.58;;;5.60;99.90;;;;;;5033306;28;20223;-80
2022/02/27 09:26:02;;;;;;;4.15;2.03;;;5.70;99.90;;;;;;5033192;28;20191;-84
2022/02/27 09:28:28;;;;;;;6.47;3.60;;;5.80;99.90;;;;;;5031349;28;20234;-84
2022/02/27 09:30:55;;;;;;;3.50;1.70;;;5.90;99.90;;;;;;5032520;28;20238;-81
2022/02/27 09:33:21;;;;;;;3.67;1.90;;;6.10;99.90;;;;;;5031505;28;20683;-81
2022/02/27 09:35:47;;;;;;;3.08;1.92;;;6.20;99.90;;;;;;5033211;28;20270;-83
2022/02/27 09:38:12;;;;;;;3.20;1.52;;;6.10;99.90;;;;;;5034624;28;20234;-83
2022/02/27 09:40:39;;;;;;;7.28;2.10;;;6.20;99.90;;;;;;5032205;28;20171;-81
2022/02/27 09:43:04;;;;;;;3.50;1.45;;;6.40;99.90;;;;;;5031580;28;20279;-80
2022/02/27 09:45:31;;;;;;;3.78;1.60;;;6.50;99.90;;;;;;5033305;28;20712;-83
2022/02/27 09:47:57;;;;;;;2.20;1.02;;;6.60;99.90;;;;;;5034574;28;20207;-83
2022/02/27 09:50:24;;;;;;;4.28;1.55;;;6.70;99.90;;;;;;5039741;28;20186;-81
2022/02/27 09:52:50;;;;;;;3.85;2.05;;;6.70;99.90;;;;;;5038487;28;20172;-85
2022/02/27 09:55:16;;;;;;;5.28;1.40;;;6.80;99.90;;;;;;5037556;28;20236;-79
2022/02/27 09:57:46;;;;;;;8.05;1.52;;;6.90;99.90;;;;;;5035067;28;20225;-82
2022/02/27 10:00:14;;;;;;;3.65;1.52;;;6.90;99.90;;;;;;5034808;28;20164;-81
2022/02/27 10:03:13;;;;;;;3.38;1.30;;;6.90;99.90;;;;;;5033767;28;20180;-83
2022/02/27 10:05:47;;;;;;;4.60;1.25;;;7.00;99.90;;;;;;5031545;28;20206;-87
2022/02/27 10:08:14;;;;;;;3.17;1.48;;;7.00;99.90;;;;;;5031787;28;20222;-82
2022/02/27 10:10:56;;;;;;;6.95;1.48;;;6.90;99.90;;;;;;5034078;28;20206;-78
2022/02/27 10:13:47;;;;;;;1.88;1.15;;;7.10;99.90;;;;;;5037477;28;20513;-79
2022/02/27 10:16:20;;;;;;;5.28;1.95;;;7.20;99.90;;;;;;5038523;28;20200;-82
2022/02/27 10:18:48;;;;;;;3.10;1.70;;;7.30;99.90;;;;;;5037069;28;20214;-79
2022/02/27 10:21:21;;;;;;;3.80;1.20;;;7.30;99.90;;;;;;5041650;28;20167;-78
2022/02/27 10:24:04;;;;;;;2.35;1.63;;;7.40;99.90;;;;;;5044924;28;20214;-79
2022/02/27 10:26:32;;;;;;;4.47;0.93;;;7.50;99.90;;;;;;5040232;28;20197;-78
2022/02/27 10:29:08;;;;;;;3.28;1.17;;;7.50;99.90;;;;;;5035107;28;20214;-78
2022/02/27 10:31:37;;;;;;;2.53;1.23;;;7.50;99.90;;;;;;5035814;28;20722;-79
2022/02/27 10:34:17;;;;;;;5.72;1.50;;;7.50;99.90;;;;;;5036794;28;20176;-79
2022/02/27 10:36:55;;;;;;;2.45;1.63;;;7.70;99.90;;;;;;5037677;28;20541;-82
2022/02/27 10:39:42;;;;;;;2.63;1.38;;;7.80;99.90;;;;;;5037459;28;20168;-78
2022/02/27 10:42:14;;;;;;;4.32;1.65;;;7.90;99.90;;;;;;5035296;28;20194;-79
2022/02/27 10:44:55;;;;;;;5.22;1.40;;;8.10;99.90;;;;;;5038739;28;20275;-78
2022/02/27 10:47:22;;;;;;;2.58;1.63;;;8.00;99.90;;;;;;5037883;28;20195;-79
2022/02/27 10:49:49;;;;;;;3.05;1.10;;;8.10;99.90;;;;;;5036591;28;20176;-80
2022/02/27 10:52:25;;;;;;;2.13;1.35;;;8.10;99.90;;;;;;5037049;28;20160;-79
2022/02/27 10:55:11;;;;;;;2.45;1.48;;;8.10;99.90;;;;;;5034522;28;20250;-79
2022/02/27 10:57:45;;;;;;;3.67;1.20;;;8.20;99.90;;;;;;5036685;28;20207;-78
2022/02/27 11:00:12;;;;;;;1.52;1.05;;;8.20;99.90;;;;;;5036357;28;20728;-78
2022/02/27 11:02:38;;;;;;;1.50;1.20;;;8.30;99.90;;;;;;5039276;28;20195;-83
2022/02/27 11:05:10;;;;;;;2.50;1.20;;;8.50;99.90;;;;;;5035948;28;20192;-78
2022/02/27 11:07:37;;;;;;;1.40;0.95;;;8.60;99.90;;;;;;5036507;28;20668;-78
2022/02/27 11:10:04;;;;;;;4.10;0.93;;;8.60;99.90;;;;;;5036111;28;20180;-82
2022/02/27 11:12:31;;;;;;;2.88;0.90;;;8.60;99.90;;;;;;5035853;28;20175;-78
2022/02/27 11:14:57;;;;;;;1.80;0.82;;;8.70;99.90;;;;;;5036163;28;20203;-78
2022/02/27 11:17:23;;;;;;;0.98;0.73;;;8.80;99.90;;;;;;5036324;28;20184;-79
2022/02/27 11:19:49;;;;;;;0.90;0.70;;;8.80;99.90;;;;;;5036207;28;20174;-90
2022/02/27 11:22:15;;;;;;;3.17;1.30;;;8.90;99.90;;;;;;5035092;28;20527;-91
2022/02/27 11:24:43;;;;;;;9.80;1.00;;;8.90;99.90;;;;;;5036184;28;20190;-95
2022/02/27 11:27:10;;;;;;;0.98;0.70;;;8.90;99.90;;;;;;5036394;28;20195;-78
2022/02/27 11:29:36;;;;;;;1.20;1.10;;;9.00;99.90;;;;;;5036118;28;20211;-82
2022/02/27 11:32:01;;;;;;;1.02;0.93;;;9.10;99.90;;;;;;5035877;28;20172;-80
2022/02/27 11:34:28;;;;;;;1.27;0.90;;;9.20;99.90;;;;;;5036410;28;20554;-80
2022/02/27 11:36:55;;;;;;;3.53;1.13;;;9.30;99.90;;;;;;5036402;28;20180;-79
2022/02/27 11:42:06;;;;;;;6.40;1.58;;;9.50;99.90;;;;;;5036422;28;20210;-90
2022/02/27 11:44:36;;;;;;;1.20;1.08;;;9.50;99.90;;;;;;5034918;28;20188;-78
2022/02/27 11:47:12;;;;;;;6.65;1.65;;;9.50;99.90;;;;;;5034973;28;20286;-78
2022/02/27 11:49:44;;;;;;;4.28;2.60;;;9.50;99.90;;;;;;5034187;28;20234;-78
2022/02/27 11:52:17;;;;;;;6.53;1.52;;;9.50;99.90;;;;;;5036229;28;20290;-79
2022/02/27 11:54:49;;;;;;;1.52;1.10;;;9.60;99.90;;;;;;5034841;28;20180;-80
2022/02/27 11:57:17;;;;;;;1.55;0.80;;;9.70;99.90;;;;;;5035154;28;20226;-80
2022/02/27 11:59:50;;;;;;;1.63;1.08;;;9.70;99.90;;;;;;5035469;28;20174;-86
2022/02/27 12:02:48;;;;;;;1.58;0.98;;;9.80;99.90;;;;;;5035476;28;20175;-78
2022/02/27 12:05:40;;;;;;;3.50;0.70;;;9.80;99.90;;;;;;5034975;28;20199;-88
2022/02/27 12:08:16;;;;;;;2.80;0.93;;;9.80;99.90;;;;;;5036701;28;20204;-82
2022/02/27 12:10:45;;;;;;;2.15;1.38;;;9.80;99.90;;;;;;5019728;28;20267;-79
2022/02/27 12:13:16;;;;;;;1.23;1.02;;;9.80;99.90;;;;;;5014570;28;20564;-81
2022/02/27 12:15:42;;;;;;;1.58;1.38;;;10.00;99.90;;;;;;5013952;28;20552;-79
2022/02/27 12:18:08;;;;;;;1.70;1.13;;;10.00;99.90;;;;;;5015429;28;20251;-80
2022/02/27 12:20:39;;;;;;;3.67;1.20;;;10.10;99.90;;;;;;5013821;28;20530;-79
2022/02/27 12:23:06;;;;;;;1.45;0.90;;;10.00;99.90;;;;;;5015430;28;20641;-89
2022/02/27 12:25:40;;;;;;;1.02;0.85;;;10.10;99.90;;;;;;5015250;28;20538;-87
2022/02/27 12:28:06;;;;;;;1.65;1.17;;;10.00;99.90;;;;;;5015113;28;20247;-79
2022/02/27 12:30:32;;;;;;;4.97;1.30;;;10.10;99.90;;;;;;5015693;28;20168;-78
2022/02/27 12:33:06;;;;;;;2.03;1.65;;;10.00;99.90;;;;;;5014593;28;20169;-79
2022/02/27 12:35:37;;;;;;;2.17;1.35;;;10.20;99.90;;;;;;5015131;28;20179;-82
2022/02/27 12:38:08;;;;;;;1.55;0.90;;;10.20;99.90;;;;;;5016669;28;20177;-83
2022/02/27 12:40:34;;;;;;;1.85;1.05;;;10.10;99.90;;;;;;5016751;28;20176;-79
2022/02/27 12:43:04;;;;;;;2.90;1.50;;;10.10;99.90;;;;;;5015183;28;20169;-80
2022/02/27 12:45:31;;;;;;;2.47;1.30;;;10.10;99.90;;;;;;5014743;28;20188;-79
2022/02/27 12:48:09;;;;;;;2.42;1.13;;;10.20;99.90;;;;;;5015151;28;20619;-80
2022/02/27 12:50:44;;;;;;;1.45;1.17;;;10.20;99.90;;;;;;5014739;28;20164;-83
2022/02/27 12:53:11;;;;;;;2.28;1.50;;;10.20;99.90;;;;;;5013184;28;20184;-79
2022/02/27 12:55:52;;;;;;;11.38;1.45;;;10.30;99.90;;;;;;5021192;28;20196;-80
2022/02/27 12:58:18;;;;;;;5.47;1.10;;;10.40;99.90;;;;;;5027180;28;20525;-79